Tiempo atmosférico en la estación meteorológica de Lorca, Murcia (320 m.)



Fecha
DESCASC
Temp. máxima en grados centígrados (hora)
DESCASC
Temp. mínima en grados centígrados (hora)
DESCASC
Temp. media en grados centígrados
DESCASC
Racha de viento máxima en m/sg (hora)
DESCASC
Velocidad máxima media en intervalos de 10 minutos(hora)
DESCASC
Precipitaciones diarias en mm
DESCASC
Precipitaciones de 00:00 a 06:00 en mm
DESCASC
Precipitaciones de 06:00 a 12:00 en mm
DESCASC
Precipitaciones de 12:00 a 18:00 en mm
DESCASC
Precipitaciones de 18:00 a 24:00 en mm
DESCASC
27-10-2020 20.7 (13:40) 5.8 (08:00) 13.3 5.56 (16:00) 3.06 (16:30) 0 0 0 0 0
26-10-2020 20.2 (14:40) 10.3 (23:50) 15.3 10.28 (13:40) 5.56 (07:00) 0 0 0 0 0
25-10-2020 25.2 (14:00) 9.2 (08:10) 17.2 8.89 (22:10) 4.17 (22:20) 0 0 0 0 0
24-10-2020 23.3 (15:00) 10.2 (00:00) 16.7 5.83 (05:20) 2.5 (05:20) 0 0 0 0 0
23-10-2020 23.5 (14:50) 10.7 (00:00) 17.1 6.94 (17:10) 3.33 (17:30) 0 0 0 0 0
22-10-2020 20.4 (00:10) 15.3 (00:00) 17.8 3.61 (11:40) 1.94 (00:10) 1.6 0 0.4 1.2 0
21-10-2020 27 (14:10) 13.6 (00:00) 20.3 7.5 (15:20) 3.89 (15:30) 0 0 0 0 0
20-10-2020 23.4 (17:50) 10.5 (00:00) 16.9 4.17 (20:20) 2.5 (20:30) 0 0 0 0 0
19-10-2020 24.5 (16:20) 6.9 (00:00) 15.7 4.44 (16:00) 1.94 (17:40) 0 0 0 0 0
18-10-2020 24.9 (15:20) 7.1 (00:00) 16 5.56 (17:30) 2.5 (16:10) 0 0 0 0 0
17-10-2020 24.3 (14:30) 7.1 (00:00) 15.7 6.67 (17:20) 3.33 (16:30) 0 0 0 0 0
16-10-2020 22.3 (14:30) 8.6 (00:00) 15.4 6.67 (14:30) 3.06 (16:50) 0 0 0 0 0
15-10-2020 24.1 (15:20) 8.5 (00:00) 16.3 7.5 (15:40) 3.33 (17:00) 0 0 0 0 0
14-10-2020 27.1 (16:30) 10.2 (00:00) 18.7 8.33 (16:50) 4.44 (19:50) 0 0 0 0 0
13-10-2020 26.5 (14:20) 8.3 (00:00) 17.4 6.39 (17:10) 3.33 (17:10) 0 0 0 0 0
12-10-2020 23.2 (16:10) 10.3 (00:00) 16.8 8.89 (10:30) 4.44 (10:10) 0 0 0 0 0
11-10-2020 22.4 (17:00) 13 (00:00) 17.7 5.56 (12:00) 2.78 (11:50) 0 0 0 0 0
10-10-2020 25.9 (15:30) 14.4 (00:00) 20.1 5.83 (16:40) 2.78 (16:50) 0 0 0 0 0
09-10-2020 27.2 (14:10) 13.4 (00:00) 20.3 5.28 (19:00) 2.78 (15:50) 0 0 0 0 0
08-10-2020 28.2 (17:00) 13.1 (00:00) 20.7 6.11 (13:40) 3.33 (21:10) 0 0 0 0 0
07-10-2020 32.2 (16:20) 13 (00:00) 22.6 6.11 (17:10) 3.33 (18:20) 0 0 0 0 0
06-10-2020 27.6 (16:10) 10.5 (00:00) 19.1 6.39 (16:30) 3.33 (16:30) 0 0 0 0 0
05-10-2020 25.7 (15:30) 12.9 (00:00) 19.3 6.67 (16:10) 3.33 (16:10) 0 0 0 0 0
04-10-2020 25.9 (15:50) 8.3 (00:00) 17.1 6.11 (19:40) 3.06 (19:40) 0 0 0 0 0
03-10-2020 23.1 (17:10) 9.4 (00:00) 16.3 10.28 (10:30) 5.56 (10:30) 0 0 0 0 0
02-10-2020 26.1 (17:20) 14 (00:00) 20.1 17.5 (14:40) 7.5 (18:40) 0.6 0 0 0 0.6
01-10-2020 31.9 (15:10) 14.3 (00:00) 23.1 6.94 (23:00) 3.61 (23:40) 0 0 0 0 0
30-09-2020 26.1 (14:50) 12.4 (00:00) 19.3 5 (16:40) 2.5 (16:40) 0 0 0 0 0

Gráficas

Temp. máximas Temp. mínimas Temp. medias Precipitaciones Rachas de viento máximas Velocidades máximas media en intervalos de 10 minutos

Datos horarios

Fecha y hora oficial Temperatura (ºC) Velocidad del viento (km/h) Dirección del viento Racha (km/h) Dirección de racha Precipitación (mm) Presión (hPa) Tendencia (hPa) Humedad (%)
2020-10-29 23:00:00 13.8 2 Sudoeste 11 Sudoeste 0 -- -- 76
2020-10-29 22:00:00 14.6 3 Sur 6 Sur 0 -- -- 73
2020-10-29 21:00:00 15.7 3 Sudoeste 8 Sudoeste 0 -- -- 71
2020-10-29 20:00:00 16.5 0 Calma 5 Sudoeste 0 -- -- 71
2020-10-29 19:00:00 18 2 Sudoeste 6 Oeste 0 -- -- 64
2020-10-29 18:00:00 20.5 0 Calma 13 Sudoeste 0 -- -- 56
2020-10-29 17:00:00 23 5 Sur 15 Sur 0 -- -- 51
2020-10-29 16:00:00 24.2 5 Sudoeste 22 Sudoeste 0 -- -- 45
2020-10-29 15:00:00 24 10 Sudoeste 22 Sudoeste 0 -- -- 45
2020-10-29 14:00:00 24.4 9 Sudoeste 19 Sudoeste 0 -- -- 46
2020-10-29 13:00:00 23.7 6 Sudoeste 15 Sudoeste 0 -- -- 47
2020-10-29 12:00:00 23.2 3 Sudoeste 12 Sudoeste 0 -- -- 49
2020-10-29 11:00:00 20.7 4 Sudoeste 13 Sur 0 -- -- 55
2020-10-29 10:00:00 16.8 3 Sudoeste 8 Sur 0 -- -- 66
2020-10-29 09:00:00 12.5 2 Sudoeste 4 Sudoeste 0 -- -- 73
2020-10-29 08:00:00 10.5 3 Sudoeste 6 Oeste 0 -- -- 77
2020-10-29 07:00:00 9.9 0 Calma 8 Sudoeste 0 -- -- 76
2020-10-29 06:00:00 10.9 0 Calma 10 Sudoeste 0 -- -- 72
2020-10-29 05:00:00 11.5 3 Sudoeste 8 Sudoeste 0 -- -- 73
2020-10-29 04:00:00 10.5 2 Sudoeste 5 Sudoeste 0 -- -- 72
2020-10-29 03:00:00 11.2 0 Calma 7 Sudoeste 0 -- -- 70
2020-10-29 02:00:00 10.8 0 Calma 4 Sudoeste 0 -- -- 71
2020-10-29 01:00:00 11.4 0 Calma 5 Oeste 0 -- -- 69
2020-10-29 00:00:00 12.1 0 Calma 9 Sudoeste 0 -- -- 65
2020-10-28 23:00:00 12.8 2 Sur 5 Sur 0 -- -- 65
2020-10-28 22:00:00 13.7 0 Calma 6 Sudoeste 0 -- -- 59
2020-10-28 21:00:00 14.1 0 Calma 4 Sur 0 -- -- 60
2020-10-28 20:00:00 15.9 2 Sudoeste 8 Sudoeste 0 -- -- 55
2020-10-28 19:00:00 17.6 4 Sudoeste 10 Sudoeste 0 -- -- 51
2020-10-28 18:00:00 19.6 6 Sudoeste 14 Sudoeste 0 -- -- 42
2020-10-28 17:00:00 22.4 7 Sudoeste 19 Sudoeste 0 -- -- 35
2020-10-28 16:00:00 24.2 6 Sudoeste 15 Sudoeste 0 -- -- 34
2020-10-28 15:00:00 24.4 8 Sudoeste 13 Sur 0 -- -- 30
2020-10-28 14:00:00 24.5 4 Sudoeste 10 Sudoeste 0 -- -- 30
2020-10-28 13:00:00 23.1 3 Sudoeste 8 Sudoeste 0 -- -- 34
2020-10-28 12:00:00 20 3 Sudoeste 9 Sur 0 -- -- 39
2020-10-28 11:00:00 18.3 3 Sudoeste 10 Sur 0 -- -- 42
2020-10-28 10:00:00 14.4 5 Sudoeste 12 Sudoeste 0 -- -- 52
2020-10-28 09:00:00 10.9 5 Sudoeste 12 Sudoeste 0 -- -- 60
2020-10-28 08:00:00 7.3 0 Calma 7 Sudoeste 0 -- -- 72
2020-10-28 07:00:00 7 0 Calma 6 Sudoeste 0 -- -- 78
2020-10-28 06:00:00 7.3 2 Sudoeste 9 Sudoeste 0 -- -- 79
2020-10-28 05:00:00 7.9 3 Sudoeste 9 Sudoeste 0 -- -- 78
2020-10-28 04:00:00 8.8 0 Calma 11 Sur 0 -- -- 78
2020-10-28 03:00:00 8.2 0 Calma 10 Sur 0 -- -- 83
2020-10-28 02:00:00 8.4 0 Calma 5 Sudoeste 0 -- -- 86
2020-10-28 01:00:00 10 3 Sudoeste 6 Sudoeste 0 -- -- 79
2020-10-28 00:00:00 9.9 0 Calma 5 Sur 0 -- -- 83
2020-10-27 23:00:00 10.4 0 Calma 6 Oeste 0 -- -- 78
2020-10-27 22:00:00 11.7 0 Calma 7 Sudoeste 0 -- -- 77
2020-10-27 21:00:00 12.5 0 Calma 5 Oeste 0 -- -- 75
2020-10-27 20:00:00 13.3 2 Oeste 7 Sudoeste 0 -- -- 70
2020-10-27 19:00:00 14.5 3 Sudoeste 9 Sudoeste 0 -- -- 62
2020-10-27 18:00:00 16.1 5 Sur 17 Sur 0 -- -- 55
2020-10-27 17:00:00 17.8 6 Sudoeste 19 Sudoeste 0 -- -- 52
2020-10-27 16:00:00 18.8 9 Sudoeste 20 Sudoeste 0 -- -- 47
2020-10-27 15:00:00 18.9 7 Sur 14 Sur 0 -- -- 41
2020-10-27 14:00:00 19.7 3 Sudoeste 12 Sur 0 -- -- 34
2020-10-27 13:00:00 19.4 4 Sur 13 Sudoeste 0 -- -- 35
2020-10-27 12:00:00 17.6 3 Sudoeste 14 Sur 0 -- -- 40
2020-10-27 11:00:00 15.4 6 Sudoeste 14 Sudoeste 0 -- -- 48
2020-10-27 10:00:00 11.6 3 Sudoeste 17 Sudoeste 0 -- -- 58
2020-10-27 09:00:00 9.7 6 Sudoeste 13 Sudoeste 0 -- -- 64
2020-10-27 08:00:00 5.8 0 Calma 14 Sudoeste 0 -- -- 71
2020-10-27 07:00:00 7.9 3 Sudoeste 11 Sudoeste 0 -- -- 64
2020-10-27 06:00:00 7.5 4 Sudoeste 15 Sudoeste 0 -- -- 64
2020-10-27 05:00:00 9.2 4 Sudoeste 14 Sudoeste 0 -- -- 60
2020-10-27 04:00:00 8.7 3 Sudoeste 15 Sudoeste 0 -- -- 60
2020-10-27 03:00:00 9.5 4 Sudoeste 18 Sudoeste 0 -- -- 59
2020-10-27 02:00:00 10.7 10 Sudoeste 17 Sudoeste 0 -- -- 58
2020-10-27 01:00:00 9.1 2 Sur 12 Sur 0 -- -- 59
2020-10-27 00:00:00 10.5 7 Sur 12 Sur 0 -- -- 54
2020-10-26 23:00:00 11.3 3 Sudoeste 12 Sudoeste 0 -- -- 51
2020-10-26 22:00:00 13 5 Sudoeste 16 Sudoeste 0 -- -- 47
2020-10-26 21:00:00 13.2 0 Calma 12 Oeste 0 -- -- 42
2020-10-26 20:00:00 15 5 Sudoeste 14 Sudoeste 0 -- -- 40
2020-10-26 19:00:00 16.5 9 Sudoeste 17 Sudoeste 0 -- -- 37
2020-10-26 18:00:00 17.4 6 Sudoeste 23 Sudoeste 0 -- -- 35
2020-10-26 17:00:00 19.1 14 Sudoeste 28 Oeste 0 -- -- 33
2020-10-26 16:00:00 19.9 9 Sudoeste 27 Sudoeste 0 -- -- 33
2020-10-26 15:00:00 19.7 10 Sudoeste 29 Sudoeste 0 -- -- 35
2020-10-26 14:00:00 19.6 18 Sudoeste 37 Sudoeste 0 -- -- 36
2020-10-26 13:00:00 19.3 9 Sur 20 Sudoeste 0 -- -- 40
2020-10-26 12:00:00 17.2 4 Sudoeste 19 Oeste 0 -- -- 43
2020-10-26 11:00:00 18 6 Sudoeste 23 Oeste 0 -- -- 43
2020-10-26 10:00:00 16.1 8 Sudoeste 20 Sudoeste 0 -- -- 45
2020-10-26 09:00:00 15.3 10 Sudoeste 23 Sudoeste 0 -- -- 47
2020-10-26 08:00:00 15.9 8 Sudoeste 29 Sudoeste 0 -- -- 48
2020-10-26 07:00:00 17.2 20 Sudoeste 35 Sudoeste 0 -- -- 47
2020-10-26 06:00:00 17.4 13 Sudoeste 30 Sudoeste 0 -- -- 55
2020-10-26 05:00:00 18.1 12 Sudoeste 21 Sudoeste 0 -- -- 59
2020-10-26 04:00:00 18.5 10 Sudoeste 22 Oeste 0 -- -- 60
2020-10-26 03:00:00 18.1 7 Sudoeste 22 Oeste 0 -- -- 58
2020-10-26 02:00:00 17.1 10 Sudoeste 22 Sudoeste 0 -- -- 59
2020-10-26 01:00:00 16.1 4 Sudoeste 15 Sudoeste 0 -- -- 55
2020-10-26 00:00:00 16.8 6 Sudoeste 18 Oeste 0 -- -- 52
2020-10-25 23:00:00 17.6 5 Sudoeste 32 Sudoeste 0 -- -- 47
2020-10-25 22:00:00 18.7 11 Sudoeste 26 Sudoeste 0 -- -- 46
2020-10-25 21:00:00 19.1 12 Sudoeste 31 Oeste 0 -- -- 46
2020-10-25 20:00:00 17.1 2 Sur 14 Sur 0 -- -- 54
2020-10-25 19:00:00 19.5 7 Sudoeste 15 Sudoeste 0 -- -- 47
2020-10-25 18:00:00 20.6 4 Sudoeste 14 Sur 0 -- -- 43
2020-10-25 17:00:00 23.4 6 Sur 16 Sudoeste 0 -- -- 39
2020-10-25 16:00:00 24 7 Sur 20 Sur 0 -- -- 37
2020-10-25 15:00:00 23.6 8 Sudoeste 21 Sudoeste 0 -- -- 35
2020-10-25 14:00:00 24.7 7 Sur 15 Sur 0 -- -- 34
2020-10-25 13:00:00 23 6 Sudoeste 13 Oeste 0 -- -- 34
2020-10-25 12:00:00 21.5 3 Sudoeste 9 Oeste 0 -- -- 41
2020-10-25 11:00:00 19 4 Sudoeste 14 Sudoeste 0 -- -- 47
2020-10-25 10:00:00 16.1 8 Sudoeste 19 Sudoeste 0 -- -- 54
2020-10-25 09:00:00 11.6 0 Calma 8 Sudoeste 0 -- -- 72
2020-10-25 08:00:00 9.3 0 Calma 9 Sudoeste 0 -- -- 79
2020-10-25 07:00:00 9.5 3 Sudoeste 9 Sudoeste 0 -- -- 79
2020-10-25 06:00:00 9.7 3 Sudoeste 14 Sudoeste 0 -- -- 77
2020-10-25 05:00:00 12.8 9 Sudoeste 16 Sudoeste 0 -- -- 68
2020-10-25 04:00:00 9.9 3 Sudoeste 11 Sudoeste 0 -- -- 80
2020-10-25 03:00:00 12.6 5 Sudoeste 15 Sudoeste 0 -- -- 70
2020-10-25 02:00:00 11.2 4 Sudoeste 12 Sudoeste 0 -- -- 75
2020-10-25 01:00:00 11.1 2 Sudoeste 9 Sudoeste 0 -- -- 77
2020-10-25 00:00:00 11.4 0 Calma 5 Sudoeste 0 -- -- 76
2020-10-24 23:00:00 12.9 0 Calma 6 Sudoeste 0 -- -- 68
2020-10-24 22:00:00 13.5 0 Calma 3 Sudoeste 0 -- -- 67
2020-10-24 21:00:00 15.1 0 Calma 4 Sudoeste 0 -- -- 62
2020-10-24 20:00:00 16.5 2 Sudoeste 10 Sudoeste 0 -- -- 56
2020-10-24 19:00:00 18.3 5 Sur 19 Sur 0 -- -- 51
2020-10-24 18:00:00 20.4 9 Sudoeste 19 Sudoeste 0 -- -- 46
2020-10-24 17:00:00 21.7 9 Sur 18 Sur 0 -- -- 42
2020-10-24 16:00:00 22.8 8 Sur 18 Sudoeste 0 -- -- 41
2020-10-24 15:00:00 23 7 Sur 17 Sur 0 -- -- 40
2020-10-24 14:00:00 22 4 Sudoeste 15 Sur 0 -- -- 41
2020-10-24 13:00:00 20.5 4 Sudoeste 9 Sudoeste 0 -- -- 44
2020-10-24 12:00:00 18.2 3 Sudoeste 12 Sur 0 -- -- 51
2020-10-24 11:00:00 15.4 4 Sudoeste 13 Sur 0 -- -- 60
2020-10-24 10:00:00 11.8 0 Calma 6 Sudoeste 0 -- -- 67
2020-10-24 09:00:00 10.4 2 Sudoeste 6 Sudoeste 0 -- -- 68
2020-10-24 08:00:00 11.8 3 Sudoeste 14 Sudoeste 0 -- -- 62
2020-10-24 07:00:00 13.3 6 Sudoeste 13 Oeste 0 -- -- 59
2020-10-24 06:00:00 13.3 6 Sudoeste 21 Sudoeste 0 -- -- 59
2020-10-24 05:00:00 12.2 5 Sudoeste 11 Sudoeste 0 -- -- 61
2020-10-24 04:00:00 13.8 9 Sudoeste 15 Sudoeste 0 -- -- 54
2020-10-24 03:00:00 12.3 4 Sur 13 Sur 0 -- -- 55
2020-10-24 02:00:00 14 4 Sudoeste 16 Sudoeste 0 -- -- 51
2020-10-24 01:00:00 13.9 0 Calma 9 Sudoeste 0 -- -- 49
2020-10-24 00:00:00 14.2 3 Sudoeste 11 Sudoeste 0 -- -- 47
2020-10-23 23:00:00 14.7 0 Calma 10 Sudoeste 0 -- -- 47
2020-10-23 22:00:00 15.6 4 Sur 10 Sudoeste 0 -- -- 45
2020-10-23 21:00:00 17.3 4 Sur 13 Sudoeste 0 -- -- 40
2020-10-23 20:00:00 19.8 6 Sudoeste 16 Sudoeste 0 -- -- 36
2020-10-23 19:00:00 21.1 6 Sudoeste 21 Sudoeste 0 -- -- 34
2020-10-23 18:00:00 22.7 6 Sudoeste 25 Sudoeste 0 -- -- 34
2020-10-23 17:00:00 22.1 9 Sudoeste 22 Sudoeste 0 -- -- 35
2020-10-23 16:00:00 21.9 9 Sudoeste 15 Sudoeste 0 -- -- 36
2020-10-23 15:00:00 23.1 3 Sudoeste 10 Sur 0 -- -- 40
2020-10-23 14:00:00 22.1 4 Sudoeste 16 Sur 0 -- -- 43
2020-10-23 13:00:00 20.8 2 Sudoeste 11 Sudoeste 0 -- -- 49
2020-10-23 12:00:00 18.8 4 Sudoeste 7 Sur 0 -- -- 55
2020-10-23 11:00:00 14.9 2 Sudoeste 8 Sur 0 -- -- 80
2020-10-23 10:00:00 13.4 6 Sudoeste 11 Sudoeste 0 -- -- 80
2020-10-23 09:00:00 10.7 0 Calma 4 Sur 0 -- -- 94
2020-10-23 08:00:00 11.3 0 Calma 6 Sudoeste 0 -- -- 95
2020-10-23 07:00:00 11.4 0 Calma 5 Sur 0 -- -- 94
2020-10-23 06:00:00 12.2 0 Calma 5 Sur 0 -- -- 94
2020-10-23 05:00:00 13 0 Calma 4 Sudoeste 0 -- -- 94
2020-10-23 04:00:00 14 0 Calma 5 Sudoeste 0 -- -- 94
2020-10-23 03:00:00 14.5 0 Calma 4 Oeste 0 -- -- 94
2020-10-23 02:00:00 14.9 0 Calma 4 Sudoeste 0 -- -- 92
2020-10-23 01:00:00 15.3 0 Calma 3 Sur 0 -- -- 91
2020-10-23 00:00:00 15.4 0 Calma 5 Sudoeste 0 -- -- 91
2020-10-22 23:00:00 15.5 0 Calma 5 Sudoeste 0 -- -- 89
2020-10-22 22:00:00 16.1 0 Calma 10 Sudoeste 0 -- -- 86
2020-10-22 21:00:00 16.7 3 Sudoeste 8 Sudoeste 0 -- -- 84
2020-10-22 20:00:00 17.6 0 Calma 7 Sur 0 -- -- 83
2020-10-22 19:00:00 18.2 0 Calma 5 Sudoeste 0 -- -- 84
2020-10-22 18:00:00 18.5 0 Calma 7 Sur 0 -- -- 83
2020-10-22 17:00:00 18.1 0 Calma 3 Sudoeste 0 -- -- 86
2020-10-22 16:00:00 18.2 0 Calma 6 Sudoeste 0 -- -- 83
2020-10-22 15:00:00 18.3 0 Calma 5 Oeste 0.4 -- -- 86
2020-10-22 14:00:00 18.2 0 Calma 6 Sudoeste 0.6 -- -- 88
2020-10-22 13:00:00 18.2 2 Sudoeste 8 Sur 0.2 -- -- 82
2020-10-22 12:00:00 18.3 6 Sudoeste 13 Sur 0.2 -- -- 74
2020-10-22 11:00:00 17.8 3 Sudoeste 8 Sudoeste 0 -- -- 74
2020-10-22 10:00:00 16.5 0 Calma 5 Sur 0 -- -- 81
2020-10-22 09:00:00 16.1 4 Sudoeste 8 Sudoeste 0.2 -- -- 82
2020-10-22 08:00:00 16.8 0 Calma 4 Sudoeste 0 -- -- 71
2020-10-22 07:00:00 17 2 Sudoeste 6 Oeste 0 -- -- 66
2020-10-22 06:00:00 17.2 0 Calma 3 Sudoeste 0 -- -- 66
2020-10-22 05:00:00 17.4 2 Sudoeste 5 Sudoeste 0 -- -- 62
2020-10-22 04:00:00 18 0 Calma 11 Sudoeste 0 -- -- 58
2020-10-22 03:00:00 19 3 Sur 10 Sudoeste 0 -- -- 54
2020-10-22 02:00:00 18.3 0 Calma 4 Sudoeste 0 -- -- 54
2020-10-22 01:00:00 19.4 0 Calma 13 Sudoeste 0 -- -- 51
2020-10-22 00:00:00 20.2 5 Sudoeste 12 Sudoeste 0 -- -- 49
2020-10-21 23:00:00 20.6 0 Calma 18 Sudoeste 0 -- -- 48
2020-10-21 22:00:00 20.3 4 Sudoeste 9 Sudoeste 0 -- -- 49
2020-10-21 21:00:00 20 0 Calma 4 Sur 0 -- -- 49
2020-10-21 20:00:00 20.5 0 Calma 5 Sudoeste 0 -- -- 47
2020-10-21 19:00:00 22.4 5 Sudoeste 11 Sudoeste 0 -- -- 43
2020-10-21 18:00:00 24.2 3 Sur 21 Sudoeste 0 -- -- 41
2020-10-21 17:00:00 24.5 10 Sur 20 Sur 0 -- -- 41
2020-10-21 16:00:00 24.4 9 Sudoeste 27 Sudoeste 0 -- -- 41
2020-10-21 15:00:00 25.5 11 Sudoeste 26 Sur 0 -- -- 40
2020-10-21 14:00:00 26.3 6 Sudoeste 14 Sur 0 -- -- 36
2020-10-21 13:00:00 24.1 3 Sudoeste 9 Sur 0 -- -- 37
2020-10-21 12:00:00 24.3 2 Sudoeste 9 Sudoeste 0 -- -- 42
2020-10-21 11:00:00 20.3 3 Sudoeste 8 Sudoeste 0 -- -- 51
2020-10-21 10:00:00 15.8 0 Calma 5 Sudoeste 0 -- -- 76
2020-10-21 09:00:00 13.7 0 Calma 8 Oeste 0 -- -- 81
2020-10-21 08:00:00 15.4 0 Calma 10 Sudoeste 0 -- -- 68
2020-10-21 07:00:00 15.4 3 Sur 7 Sur 0 -- -- 78
2020-10-21 06:00:00 15 0 Calma 6 Sudoeste 0 -- -- 86
2020-10-21 05:00:00 14.8 2 Sur 6 Sudoeste 0 -- -- 91
2020-10-21 04:00:00 15.1 3 Sudoeste 18 Sudoeste 0 -- -- 89
2020-10-21 03:00:00 14.8 0 Calma 6 Sudoeste 0 -- -- 91
2020-10-21 02:00:00 15.1 0 Calma 5 Sudoeste 0 -- -- 93
2020-10-21 01:00:00 15.3 0 Calma 4 Sur 0 -- -- 92
2020-10-21 00:00:00 16 0 Calma 9 Sudoeste 0 -- -- 91
2020-10-20 23:00:00 16.5 4 Sudoeste 12 Sudoeste 0 -- -- 91
2020-10-20 22:00:00 17.2 5 Sudoeste 12 Sudoeste 0 -- -- 89
2020-10-20 21:00:00 17.9 3 Sudoeste 15 Sudoeste 0 -- -- 83
2020-10-20 20:00:00 18.9 5 Sudoeste 12 Sudoeste 0 -- -- 78
2020-10-20 19:00:00 20.5 3 Sudoeste 15 Sudoeste 0 -- -- 67
2020-10-20 18:00:00 22.9 4 Sudoeste 12 Sudoeste 0 -- -- 60
2020-10-20 17:00:00 22.5 3 Sudoeste 13 Sudoeste 0 -- -- 59
2020-10-20 16:00:00 22.9 5 Sudoeste 12 Sudoeste 0 -- -- 58
2020-10-20 15:00:00 20.6 2 Sudoeste 6 Oeste 0 -- -- 65
2020-10-20 14:00:00 19.8 3 Sudoeste 10 Sudoeste 0 -- -- 67
2020-10-20 13:00:00 18.9 2 Sudoeste 8 Sudoeste 0 -- -- 76
2020-10-20 12:00:00 17.2 0 Calma 6 Sudoeste 0 -- -- 77
2020-10-20 11:00:00 15.4 0 Calma 6 Sudoeste 0 -- -- 78
2020-10-20 10:00:00 13.6 4 Sur 10 Sur 0 -- -- 78
2020-10-20 09:00:00 11.7 4 Sur 8 Sur 0 -- -- 85
2020-10-20 08:00:00 11.2 0 Calma 4 Oeste 0 -- -- 89
2020-10-20 07:00:00 11.3 0 Calma 7 Sudoeste 0 -- -- 89
2020-10-20 06:00:00 11.8 0 Calma 11 Sudoeste 0 -- -- 88
2020-10-20 05:00:00 11.9 3 Sur 9 Sudoeste 0 -- -- 85
2020-10-20 04:00:00 12.2 0 Calma 6 Sur 0 -- -- 84
2020-10-20 03:00:00 12.7 4 Sur 11 Sudoeste 0 -- -- 80
2020-10-20 02:00:00 13.1 2 Sur 7 Sur 0 -- -- 84
2020-10-20 01:00:00 13.7 3 Sur 6 Sur 0 -- -- 87
2020-10-20 00:00:00 14.5 3 Sur 6 Sur 0 -- -- 89
2020-10-19 23:00:00 15.1 3 Sudoeste 12 Sudoeste 0 -- -- 88
2020-10-19 22:00:00 15.8 5 Sudoeste 10 Sudoeste 0 -- -- 83
2020-10-19 21:00:00 16.9 0 Calma 5 Sudoeste 0 -- -- 74
2020-10-19 20:00:00 18.6 2 Sudoeste 7 Oeste 0 -- -- 63
2020-10-19 19:00:00 20.3 5 Sudoeste 10 Sudoeste 0 -- -- 55
2020-10-19 18:00:00 22.7 4 Sudoeste 14 Sur 0 -- -- 48
2020-10-19 17:00:00 23.9 5 Sudoeste 14 Sudoeste 0 -- -- 45
2020-10-19 16:00:00 23.3 5 Sudoeste 16 Sudoeste 0 -- -- 47
2020-10-19 15:00:00 22.8 3 Sudoeste 12 Sudoeste 0 -- -- 48
2020-10-19 14:00:00 22.5 4 Sudoeste 11 Sudoeste 0 -- -- 52
2020-10-19 13:00:00 19.7 6 Sudoeste 12 Sudoeste 0 -- -- 53
2020-10-19 12:00:00 18 3 Sudoeste 6 Sudoeste 0 -- -- 58
2020-10-19 11:00:00 14 4 Sudoeste 10 Oeste 0 -- -- 59
2020-10-19 10:00:00 9.5 3 Sudoeste 14 Sudoeste 0 -- -- 73
2020-10-19 09:00:00 8.7 5 Sudoeste 13 Sudoeste 0 -- -- 68
2020-10-19 08:00:00 6.9 0 Calma 4 Sudoeste 0 -- -- 83
2020-10-19 07:00:00 7.5 0 Calma 5 Sur 0 -- -- 79
2020-10-19 06:00:00 8.3 0 Calma 5 Sudoeste 0 -- -- 78
2020-10-19 05:00:00 9.9 3 Sur 14 Sudoeste 0 -- -- 65
2020-10-19 04:00:00 9.4 0 Calma 9 Sur 0 -- -- 78
2020-10-19 03:00:00 10.9 4 Sur 10 Sur 0 -- -- 67
2020-10-19 02:00:00 11.3 5 Sur 10 Sudoeste 0 -- -- 66
2020-10-19 01:00:00 11.9 4 Sur 11 Sur 0 -- -- 67
2020-10-19 00:00:00 12.5 3 Sur 6 Sur 0 -- -- 83
2020-10-18 23:00:00 13.1 0 Calma 4 Sudoeste 0 -- -- 74
2020-10-18 22:00:00 14.2 0 Calma 8 Sudoeste 0 -- -- 64
2020-10-18 21:00:00 15.3 0 Calma 4 Sudoeste 0 -- -- 54
2020-10-18 20:00:00 17.8 3 Sudoeste 6 Sudoeste 0 -- -- 47
2020-10-18 19:00:00 20.1 4 Sudoeste 17 Sudoeste 0 -- -- 46
2020-10-18 18:00:00 22 9 Sudoeste 20 Sudoeste 0 -- -- 43
2020-10-18 17:00:00 23.2 8 Sudoeste 18 Sudoeste 0 -- -- 41
2020-10-18 16:00:00 23.7 8 Sudoeste 18 Sudoeste 0 -- -- 41
2020-10-18 15:00:00 24.1 3 Sudoeste 15 Sur 0 -- -- 38
2020-10-18 14:00:00 23.1 4 Sudoeste 15 Sudoeste 0 -- -- 39
2020-10-18 13:00:00 21.1 6 Sudoeste 14 Sudoeste 0 -- -- 43
2020-10-18 12:00:00 19.1 6 Sudoeste 11 Sudoeste 0 -- -- 46
2020-10-18 11:00:00 14.9 0 Calma 8 Sur 0 -- -- 59
2020-10-18 10:00:00 10.3 0 Calma 3 Sur 0 -- -- 78
2020-10-18 09:00:00 7.6 2 Sudoeste 5 Sudoeste 0 -- -- 85
2020-10-18 08:00:00 8.1 0 Calma 6 Sur 0 -- -- 82
2020-10-18 07:00:00 8.3 0 Calma 4 Sudoeste 0 -- -- 83
2020-10-18 06:00:00 8.2 0 Calma 3 Sur 0 -- -- 82
2020-10-18 05:00:00 9 0 Calma 5 Sudoeste 0 -- -- 79
2020-10-18 04:00:00 10 3 Sudoeste 10 Sur 0 -- -- 76
2020-10-18 03:00:00 11.3 4 Sudoeste 11 Sudoeste 0 -- -- 71
2020-10-18 02:00:00 10.7 0 Calma 6 Sudoeste 0 -- -- 73
2020-10-18 01:00:00 10.9 0 Calma 4 Sudoeste 0 -- -- 73
2020-10-18 00:00:00 11.8 2 Sudoeste 6 Sur 0 -- -- 71
2020-10-17 23:00:00 13.9 2 Sur 7 Sudoeste 0 -- -- 64
2020-10-17 22:00:00 14.3 0 Calma 8 Sudoeste 0 -- -- 66
2020-10-17 21:00:00 15.4 3 Sudoeste 7 Sudoeste 0 -- -- 66
2020-10-17 20:00:00 16.4 3 Sudoeste 14 Sudoeste 0 -- -- 62
2020-10-17 19:00:00 18.1 8 Sudoeste 19 Sudoeste 0 -- -- 55
2020-10-17 18:00:00 19.4 9 Sudoeste 24 Sudoeste 0 -- -- 48
2020-10-17 17:00:00 21.4 10 Sur 21 Sur 0 -- -- 46
2020-10-17 16:00:00 22.3 11 Sur 21 Sur 0 -- -- 46
2020-10-17 15:00:00 24.3 4 Sudoeste 13 Sur 0 -- -- 30
2020-10-17 14:00:00 23.3 4 Sudoeste 11 Sur 0 -- -- 33
2020-10-17 13:00:00 20.9 4 Sudoeste 7 Sudoeste 0 -- -- 41
2020-10-17 12:00:00 18.5 3 Sudoeste 8 Oeste 0 -- -- 47
2020-10-17 11:00:00 13 3 Sudoeste 6 Oeste 0 -- -- 70
2020-10-17 10:00:00 10.7 4 Sudoeste 17 Sudoeste 0 -- -- 70
2020-10-17 09:00:00 7.5 3 Sudoeste 6 Oeste 0 -- -- 86
2020-10-17 08:00:00 7.7 2 Oeste 9 Sudoeste 0 -- -- 85
2020-10-17 07:00:00 8.4 0 Calma 5 Sudoeste 0 -- -- 87
2020-10-17 06:00:00 9.5 3 Sudoeste 9 Sudoeste 0 -- -- 79
2020-10-17 05:00:00 9.9 4 Sudoeste 8 Sudoeste 0 -- -- 80
2020-10-17 04:00:00 10.2 2 Sudoeste 9 Sudoeste 0 -- -- 80
2020-10-17 03:00:00 10.5 3 Sur 6 Sur 0 -- -- 81
2020-10-17 02:00:00 11.1 3 Sur 10 Sudoeste 0 -- -- 81
2020-10-17 01:00:00 12.3 5 Sur 14 Sudoeste 0 -- -- 79
2020-10-17 00:00:00 12.7 4 Sur 8 Sur 0 -- -- 78
2020-10-16 23:00:00 12.8 0 Calma 4 Oeste 0 -- -- 80
2020-10-16 22:00:00 13.3 0 Calma 3 Oeste 0 -- -- 77
2020-10-16 21:00:00 14.5 0 Calma 8 Sudoeste 0 -- -- 72
2020-10-16 20:00:00 15.7 4 Sur 14 Sur 0 -- -- 64
2020-10-16 19:00:00 17.4 8 Sur 21 Sudoeste 0 -- -- 47
2020-10-16 18:00:00 19.3 10 Sur 22 Sur 0 -- -- 40
2020-10-16 17:00:00 20.5 11 Sur 23 Sur 0 -- -- 36
2020-10-16 16:00:00 21.3 10 Sur 22 Sur 0 -- -- 36
2020-10-16 15:00:00 21.5 8 Sudoeste 24 Sur 0 -- -- 36
2020-10-16 14:00:00 22.2 9 Sur 19 Sur 0 -- -- 35
2020-10-16 13:00:00 20.9 4 Sudoeste 10 Sur 0 -- -- 38
2020-10-16 12:00:00 17.9 4 Sudoeste 9 Sur 0 -- -- 45
2020-10-16 11:00:00 13.5 4 Sudoeste 6 Sudoeste 0 -- -- 63
2020-10-16 10:00:00 10.9 2 Sudoeste 10 Sudoeste 0 -- -- 72
2020-10-16 09:00:00 9 0 Calma 13 Sur 0 -- -- 76
2020-10-16 08:00:00 9.4 5 Sur 11 Sudoeste 0 -- -- 72
2020-10-16 07:00:00 8.9 0 Calma 8 Sur 0 -- -- 79
2020-10-16 06:00:00 10.1 0 Calma 11 Sudoeste 0 -- -- 73
2020-10-16 05:00:00 10.7 2 Sudoeste 11 Sur 0 -- -- 77
2020-10-16 04:00:00 10.9 5 Sur 11 Sudoeste 0 -- -- 78
2020-10-16 03:00:00 11.4 3 Sur 12 Sur 0 -- -- 79
2020-10-16 02:00:00 12.3 6 Sudoeste 15 Sur 0 -- -- 77
2020-10-16 01:00:00 12.9 3 Sur 7 Sur 0 -- -- 80
2020-10-16 00:00:00 12.5 0 Calma 3 Sudoeste 0 -- -- 80
2020-10-15 23:00:00 13.6 0 Calma 5 Sudoeste 0 -- -- 78
2020-10-15 22:00:00 15.2 2 Sur 5 Sur 0 -- -- 77
2020-10-15 21:00:00 16.4 4 Sudoeste 15 Sudoeste 0 -- -- 74
2020-10-15 20:00:00 17 6 Sudoeste 18 Sur 0 -- -- 68
2020-10-15 19:00:00 18.3 9 Sur 22 Sur 0 -- -- 51
2020-10-15 18:00:00 20 9 Sur 24 Sudoeste 0 -- -- 42
2020-10-15 17:00:00 21.3 12 Sur 23 Sur 0 -- -- 37
2020-10-15 16:00:00 22.5 10 Sur 27 Sur 0 -- -- 33
2020-10-15 15:00:00 22.7 4 Sudoeste 13 Sur 0 -- -- 30
2020-10-15 14:00:00 22.6 4 Sudoeste 15 Sur 0 -- -- 32
2020-10-15 13:00:00 21.4 6 Sudoeste 12 Sudoeste 0 -- -- 34
2020-10-15 12:00:00 19.1 3 Sudoeste 8 Sudoeste 0 -- -- 39
2020-10-15 11:00:00 14.8 3 Sudoeste 18 Oeste 0 -- -- 46
2020-10-15 10:00:00 12.8 9 Sudoeste 19 Sudoeste 0 -- -- 48
2020-10-15 09:00:00 9.6 2 Sudoeste 20 Sudoeste 0 -- -- 60
2020-10-15 08:00:00 10.7 8 Sudoeste 16 Sudoeste 0 -- -- 52
2020-10-15 07:00:00 8.7 0 Calma 9 Sur 0 -- -- 60
2020-10-15 06:00:00 9.2 0 Calma 6 Sudoeste 0 -- -- 65
2020-10-15 05:00:00 10.9 2 Sudoeste 7 Sur 0 -- -- 52
2020-10-15 04:00:00 10.7 0 Calma 7 Oeste 0 -- -- 56
2020-10-15 03:00:00 12 3 Sur 8 Sudoeste 0 -- -- 50
2020-10-15 02:00:00 12.4 4 Sur 11 Sudoeste 0 -- -- 52
2020-10-15 01:00:00 11.7 0 Calma 8 Sudoeste 0 -- -- 68
2020-10-15 00:00:00 13.2 0 Calma 4 Oeste 0 -- -- 88
2020-10-14 23:00:00 14.3 0 Calma 12 Sudoeste 0 -- -- 87
2020-10-14 22:00:00 15.3 2 Sudoeste 15 Sudoeste 0 -- -- 85
2020-10-14 21:00:00 16.3 6 Sudoeste 24 Sudoeste 0 -- -- 82
2020-10-14 20:00:00 17.7 10 Sudoeste 27 Sudoeste 0 -- -- 77
2020-10-14 19:00:00 20.4 12 Sudoeste 25 Sudoeste 0 -- -- 60
2020-10-14 18:00:00 25.6 4 Sudoeste 15 Sudoeste 0 -- -- 33
2020-10-14 17:00:00 25.5 4 Sudoeste 30 Sudoeste 0 -- -- 33
2020-10-14 16:00:00 26.2 7 Sudoeste 21 Sur 0 -- -- 29
2020-10-14 15:00:00 25.9 7 Sur 24 Sudoeste 0 -- -- 30
2020-10-14 14:00:00 25.7 5 Sudoeste 15 Sudoeste 0 -- -- 32
2020-10-14 13:00:00 25.4 5 Sudoeste 12 Sur 0 -- -- 35
2020-10-14 12:00:00 23.4 4 Sudoeste 14 Sudoeste 0 -- -- 39
2020-10-14 11:00:00 20.6 5 Sur 14 Sudoeste 0 -- -- 44
2020-10-14 10:00:00 17.3 2 Sudoeste 9 Sudoeste 0 -- -- 53
2020-10-14 09:00:00 11.3 0 Calma 5 Sur 0 -- -- 72
2020-10-14 08:00:00 10.6 0 Calma 4 Sudoeste 0 -- -- 71
2020-10-14 07:00:00 11.3 0 Calma 4 Sudoeste 0 -- -- 68
2020-10-14 06:00:00 11.3 0 Calma 10 Sudoeste 0 -- -- 68
2020-10-14 05:00:00 11.4 0 Calma 6 Sudoeste 0 -- -- 67
2020-10-14 04:00:00 11.8 0 Calma 6 Sudoeste 0 -- -- 66
2020-10-14 03:00:00 12.9 0 Calma 5 Sur 0 -- -- 60
2020-10-14 02:00:00 13.5 0 Calma 8 Sudoeste 0 -- -- 59
2020-10-14 01:00:00 14.3 3 Sudoeste 12 Sudoeste 0 -- -- 58
2020-10-14 00:00:00 14.7 0 Calma 12 Sudoeste 0 -- -- 57
2020-10-13 23:00:00 15.7 2 Sur 4 Sur 0 -- -- 54
2020-10-13 22:00:00 15.9 0 Calma 4 Sudoeste 0 -- -- 51
2020-10-13 21:00:00 17.7 0 Calma 9 Sudoeste 0 -- -- 45
2020-10-13 20:00:00 19.9 6 Sur 17 Sur 0 -- -- 40
2020-10-13 19:00:00 22.1 10 Sur 21 Sur 0 -- -- 39
2020-10-13 18:00:00 23 11 Sur 23 Sur 0 -- -- 37
2020-10-13 17:00:00 25.3 11 Sur 20 Sur 0 -- -- 35
2020-10-13 16:00:00 26.3 7 Sudoeste 17 Sudoeste 0 -- -- 34
2020-10-13 15:00:00 25.7 2 Sudoeste 13 Sudoeste 0 -- -- 35
2020-10-13 14:00:00 26.2 4 Sudoeste 14 Sur 0 -- -- 35
2020-10-13 13:00:00 25.3 3 Sudoeste 8 Sur 0 -- -- 36
2020-10-13 12:00:00 21.5 3 Sur 9 Sur 0 -- -- 40
2020-10-13 11:00:00 16.4 2 Sudoeste 9 Sudoeste 0 -- -- 49
2020-10-13 10:00:00 -- -- -- -- -- -- -- -- --
2020-10-13 09:00:00 10.2 3 Sudoeste 10 Sudoeste 0 -- -- 66
2020-10-13 08:00:00 8.5 0 Calma 9 Sudoeste 0 -- -- 71
2020-10-13 07:00:00 8.7 0 Calma 7 Sudoeste 0 -- -- 71
2020-10-13 06:00:00 9.5 0 Calma 13 Sur 0 -- -- 67
2020-10-13 05:00:00 11 6 Sudoeste 22 Sudoeste 0 -- -- 59
2020-10-13 04:00:00 8.7 3 Sudoeste 8 Sudoeste 0 -- -- 74
2020-10-13 03:00:00 9 0 Calma 5 Oeste 0 -- -- 73
2020-10-13 02:00:00 10.4 2 Sudoeste 12 Sudoeste 0 -- -- 71
2020-10-13 01:00:00 -- -- -- -- -- -- -- -- --
2020-10-13 00:00:00 12 3 Sur 6 Sur 0 -- -- 67
2020-10-12 23:00:00 13.3 2 Sudoeste 7 Sudoeste 0 -- -- 65
2020-10-12 22:00:00 13.7 4 Sudoeste 11 Sudoeste 0 -- -- 65
2020-10-12 21:00:00 14.3 5 Sudoeste 13 Sudoeste 0 -- -- 61
2020-10-12 20:00:00 15.7 5 Sur 16 Sudoeste 0 -- -- 53
2020-10-12 19:00:00 17.8 8 Sur 20 Sur 0 -- -- 43
2020-10-12 18:00:00 -- -- -- -- -- -- -- -- --
2020-10-12 17:00:00 21.8 9 Sur 18 Sur 0 -- -- 33
2020-10-12 16:00:00 23.1 5 Sudoeste 17 Sudoeste 0 -- -- 29
2020-10-12 15:00:00 22.1 6 Sudoeste 18 Sudoeste 0 -- -- 30
2020-10-12 14:00:00 21.1 5 Sudoeste 16 Sudoeste 0 -- -- 32
2020-10-12 13:00:00 21.1 4 Sudoeste 26 Sudoeste 0 -- -- 33
2020-10-12 12:00:00 18.7 9 Sudoeste 25 Sur 0 -- -- 37
2020-10-12 11:00:00 16.2 13 Sudoeste 32 Sudoeste 0 -- -- 41
2020-10-12 10:00:00 14.1 12 Sudoeste 26 Sudoeste 0 -- -- 45
2020-10-12 09:00:00 12.4 15 Sudoeste 26 Sudoeste 0 -- -- 47
2020-10-12 08:00:00 11.2 4 Sudoeste 14 Sudoeste 0 -- -- 51
2020-10-12 07:00:00 11.5 6 Sudoeste 13 Sudoeste 0 -- -- 51
2020-10-12 06:00:00 11.3 0 Calma 18 Sur 0 -- -- 51
2020-10-12 05:00:00 13.4 6 Sudoeste 15 Sur 0 -- -- 47
2020-10-12 04:00:00 -- -- -- -- -- -- -- -- --
2020-10-12 03:00:00 11.9 5 Sur 14 Sudoeste 0 -- -- 61
2020-10-12 02:00:00 13.1 6 Sudoeste 15 Sudoeste 0 -- -- 65
2020-10-12 01:00:00 13.7 7 Sudoeste 14 Sudoeste 0 -- -- 77
2020-10-12 00:00:00 13 0 Calma 4 Sudoeste 0 -- -- 88
2020-10-11 23:00:00 14.3 0 Calma 4 Oeste 0 -- -- 84
2020-10-11 22:00:00 15 2 Sudoeste 7 Sudoeste 0 -- -- 80
2020-10-11 21:00:00 -- -- -- -- -- -- -- -- --
2020-10-11 20:00:00 -- -- -- -- -- -- -- -- --
2020-10-11 19:00:00 19.5 8 Sudoeste 19 Sudoeste 0 -- -- 59
2020-10-11 18:00:00 21.8 7 Sur 20 Sur 0 -- -- 58
2020-10-11 17:00:00 22.2 5 Sudoeste 16 Sur 0 -- -- 58
2020-10-11 16:00:00 21.2 6 Sudoeste 18 Sudoeste 0 -- -- 62
2020-10-11 15:00:00 19.8 3 Sudoeste 16 Sudoeste 0 -- -- 61
2020-10-11 14:00:00 19.1 4 Sudoeste 13 Sudoeste 0 -- -- 64
2020-10-11 13:00:00 19.6 4 Sudoeste 17 Sudoeste 0 -- -- 65
2020-10-11 12:00:00 18.6 8 Sudoeste 20 Sudoeste 0 -- -- 68
2020-10-11 11:00:00 18.5 4 Sudoeste 12 Sudoeste 0 -- -- 79
2020-10-11 10:00:00 17.9 0 Calma 3 Sudoeste 0 -- -- 85
2020-10-11 09:00:00 16.9 0 Calma 3 Sur 0 -- -- 88
2020-10-11 08:00:00 16.2 0 Calma 3 Sur 0 -- -- 88
2020-10-11 07:00:00 15.9 0 Calma 7 Sudoeste 0 -- -- 87
2020-10-11 06:00:00 16.8 2 Sudoeste 8 Sudoeste 0 -- -- 83
2020-10-11 05:00:00 18 5 Sudoeste 10 Sudoeste 0 -- -- 80
2020-10-11 04:00:00 18.1 3 Sur 5 Sur 0 -- -- 80
2020-10-11 03:00:00 17.2 0 Calma 7 Sudoeste 0 -- -- 83
2020-10-11 02:00:00 16.9 3 Sur 6 Sur 0 -- -- 84
2020-10-11 01:00:00 16.8 0 Calma 3 Sudoeste 0 -- -- 84
2020-10-11 00:00:00 17.3 0 Calma 3 Sudoeste 0 -- -- 83
2020-10-10 23:00:00 17.9 0 Calma 5 Sur 0 -- -- 80
2020-10-10 22:00:00 18.4 2 Sudoeste 7 Sudoeste 0 -- -- 78
2020-10-10 21:00:00 18.8 3 Sudoeste 10 Sur 0 -- -- 76
2020-10-10 20:00:00 19.7 6 Sudoeste 11 Sudoeste 0 -- -- 71
2020-10-10 19:00:00 21.1 5 Sudoeste 15 Sur 0 -- -- 65
2020-10-10 18:00:00 22.7 7 Sudoeste 20 Sur 0 -- -- 59
2020-10-10 17:00:00 24.2 9 Sudoeste 21 Sudoeste 0 -- -- 55
2020-10-10 16:00:00 25.1 8 Sudoeste 20 Sur 0 -- -- 54
2020-10-10 15:00:00 25.4 5 Sudoeste 17 Sudoeste 0 -- -- 56
2020-10-10 14:00:00 23.9 5 Sudoeste 12 Sudoeste 0 -- -- 63
2020-10-10 13:00:00 21.8 4 Sudoeste 14 Sudoeste 0 -- -- 66
2020-10-10 12:00:00 21.4 3 Sudoeste 12 Sudoeste 0 -- -- 73
2020-10-10 11:00:00 18.6 0 Calma 9 Sur 0 -- -- 74
2020-10-10 10:00:00 17.1 2 Sudoeste 6 Sur 0 -- -- 76
2020-10-10 09:00:00 15.1 2 Sur 5 Sur 0 -- -- 84
2020-10-10 08:00:00 14.7 0 Calma 3 Sur 0 -- -- 90
2020-10-10 07:00:00 14.8 0 Calma 3 Sudoeste 0 -- -- 90
2020-10-10 06:00:00 14.7 0 Calma 5 Sur 0 -- -- 90
2020-10-10 05:00:00 14.8 0 Calma 6 Sur 0 -- -- 89
2020-10-10 04:00:00 14.8 0 Calma 4 Sudoeste 0 -- -- 90
2020-10-10 03:00:00 15.5 0 Calma 3 Oeste 0 -- -- 90
2020-10-10 02:00:00 15.7 0 Calma 3 Sudoeste 0 -- -- 88
2020-10-10 01:00:00 16.3 0 Calma 2 Oeste 0 -- -- 85
2020-10-10 00:00:00 17 0 Calma 2 Sudoeste 0 -- -- 85
2020-10-09 23:00:00 17.6 0 Calma 3 Sur 0 -- -- 84
2020-10-09 22:00:00 18.4 0 Calma 4 Sudoeste 0 -- -- 80
2020-10-09 21:00:00 19.2 3 Sudoeste 11 Sudoeste 0 -- -- 78
2020-10-09 20:00:00 20 5 Sudoeste 15 Sudoeste 0 -- -- 74
2020-10-09 19:00:00 21.5 9 Sudoeste 19 Sudoeste 0 -- -- 67
2020-10-09 18:00:00 24.1 7 Sudoeste 15 Sudoeste 0 -- -- 58
2020-10-09 17:00:00 25.5 7 Sudoeste 18 Sur 0 -- -- 52
2020-10-09 16:00:00 24.9 8 Sudoeste 16 Sur 0 -- -- 51
2020-10-09 15:00:00 26.3 6 Sur 15 Sudoeste 0 -- -- 45
2020-10-09 14:00:00 26.2 7 Sudoeste 14 Sudoeste 0 -- -- 47
2020-10-09 13:00:00 24.8 4 Sudoeste 12 Sur 0 -- -- 53
2020-10-09 12:00:00 23 0 Calma 5 Sudoeste 0 -- -- 56
2020-10-09 11:00:00 18.3 2 Sudoeste 6 Sudoeste 0 -- -- 79
2020-10-09 10:00:00 16.2 0 Calma 4 Sudoeste 0 -- -- 88
2020-10-09 09:00:00 14.4 0 Calma 4 Sudoeste 0 -- -- 92
2020-10-09 08:00:00 13.6 0 Calma 4 Sudoeste 0 -- -- 94
2020-10-09 07:00:00 14 0 Calma 6 Sudoeste 0 -- -- 92
2020-10-09 06:00:00 15.2 3 Sudoeste 13 Sudoeste 0 -- -- 92
2020-10-09 05:00:00 15.5 5 Sudoeste 12 Sudoeste 0 -- -- 90
2020-10-09 04:00:00 15.6 3 Sur 7 Sur 0 -- -- 88
2020-10-09 03:00:00 15.9 5 Sur 10 Sur 0 -- -- 88
2020-10-09 02:00:00 17.1 3 Sur 7 Sudoeste 0 -- -- 88
2020-10-09 01:00:00 18.1 3 Sudoeste 10 Sudoeste 0 -- -- 89
2020-10-09 00:00:00 18.2 3 Sudoeste 10 Sudoeste 0 -- -- 89
2020-10-08 23:00:00 18.3 5 Sudoeste 16 Sudoeste 0 -- -- 89
2020-10-08 22:00:00 18.9 9 Sudoeste 19 Sudoeste 0 -- -- 88
2020-10-08 21:00:00 19.8 10 Sudoeste 20 Sudoeste 0 -- -- 83
2020-10-08 20:00:00 21.5 7 Sudoeste 18 Sudoeste 0 -- -- 71
2020-10-08 19:00:00 23.9 4 Sudoeste 16 Sudoeste 0 -- -- 60
2020-10-08 18:00:00 27 5 Sudoeste 18 Sudoeste 0 -- -- 53
2020-10-08 17:00:00 27.5 7 Sudoeste 21 Sudoeste 0 -- -- 52
2020-10-08 16:00:00 27 8 Sudoeste 22 Sudoeste 0 -- -- 52
2020-10-08 15:00:00 27.7 6 Sudoeste 22 Sudoeste 0 -- -- 53
2020-10-08 14:00:00 25.9 6 Sudoeste 22 Sudoeste 0 -- -- 57
2020-10-08 13:00:00 24.8 5 Sudoeste 15 Sudoeste 0 -- -- 59
2020-10-08 12:00:00 22.8 6 Sudoeste 13 Sudoeste 0 -- -- 60
2020-10-08 11:00:00 19.8 4 Sudoeste 9 Sudoeste 0 -- -- 61
2020-10-08 10:00:00 16.7 4 Sur 9 Sur 0 -- -- 66
2020-10-08 09:00:00 14.5 3 Sudoeste 12 Sur 0 -- -- 70
2020-10-08 08:00:00 14.2 6 Sur 14 Sur 0 -- -- 71
2020-10-08 07:00:00 13.6 0 Calma 9 Sudoeste 0 -- -- 72
2020-10-08 06:00:00 14.2 0 Calma 10 Sur 0 -- -- 71
2020-10-08 05:00:00 14.5 0 Calma 8 Sudoeste 0 -- -- 70
2020-10-08 04:00:00 15.8 3 Sudoeste 9 Sudoeste 0 -- -- 66
2020-10-08 03:00:00 17.2 5 Sudoeste 9 Sur 0 -- -- 61
2020-10-08 02:00:00 16.7 2 Sur 7 Sur 0 -- -- 64
2020-10-08 01:00:00 18 4 Sur 7 Sur 0 -- -- 60
2020-10-08 00:00:00 18.6 3 Sur 9 Sudoeste 0 -- -- 59
2020-10-07 23:00:00 18.1 0 Calma 2 Oeste 0 -- -- 61
2020-10-07 22:00:00 19.7 0 Calma 7 Sudoeste 0 -- -- 56
2020-10-07 21:00:00 21.9 5 Sudoeste 11 Sudoeste 0 -- -- 49
2020-10-07 20:00:00 23.7 6 Sudoeste 18 Sudoeste 0 -- -- 46
2020-10-07 19:00:00 25.9 7 Sudoeste 21 Sudoeste 0 -- -- 41
2020-10-07 18:00:00 28.2 9 Sudoeste 22 Sudoeste 0 -- -- 38
2020-10-07 17:00:00 30.5 8 Sudoeste 21 Sudoeste 0 -- -- 34
2020-10-07 16:00:00 31.5 3 Sudoeste 12 Sudoeste 0 -- -- 33
2020-10-07 15:00:00 31 3 Sudoeste 13 Sudoeste 0 -- -- 34
2020-10-07 14:00:00 29.7 4 Sudoeste 10 Sur 0 -- -- 37
2020-10-07 13:00:00 28.6 3 Sudoeste 8 Sudoeste 0 -- -- 40
2020-10-07 12:00:00 25.9 0 Calma 7 Sur 0 -- -- 46
2020-10-07 11:00:00 20.9 0 Calma 7 Oeste 0 -- -- 56
2020-10-07 10:00:00 17.5 2 Sudoeste 6 Sudoeste 0 -- -- 63
2020-10-07 09:00:00 13.6 0 Calma 15 Sudoeste 0 -- -- 71
2020-10-07 08:00:00 16.5 9 Sudoeste 15 Sur 0 -- -- 61
2020-10-07 07:00:00 14.9 3 Sur 8 Sudoeste 0 -- -- 66
2020-10-07 06:00:00 13.4 3 Sudoeste 6 Sudoeste 0 -- -- 73
2020-10-07 05:00:00 13.8 0 Calma 5 Sur 0 -- -- 71
2020-10-07 04:00:00 14.7 2 Sudoeste 8 Sur 0 -- -- 67
2020-10-07 03:00:00 14.9 3 Sudoeste 9 Sudoeste 0 -- -- 68
2020-10-07 02:00:00 16.1 4 Sudoeste 13 Sudoeste 0 -- -- 61
2020-10-07 01:00:00 15.3 0 Calma 5 Sudoeste 0 -- -- 70
2020-10-07 00:00:00 15.7 0 Calma 4 Sudoeste 0 -- -- 66
2020-10-06 23:00:00 17.1 2 Sur 5 Sur 0 -- -- 61
2020-10-06 22:00:00 17.9 0 Calma 7 Sudoeste 0 -- -- 62
2020-10-06 21:00:00 18.8 4 Sudoeste 13 Sudoeste 0 -- -- 58
2020-10-06 20:00:00 19.9 6 Sudoeste 19 Sudoeste 0 -- -- 51
2020-10-06 19:00:00 22.3 9 Sur 22 Sur 0 -- -- 42
2020-10-06 18:00:00 24.1 10 Sur 23 Sur 0 -- -- 37
2020-10-06 17:00:00 26.1 10 Sur 23 Sur 0 -- -- 35
2020-10-06 16:00:00 27.2 8 Sur 17 Sur 0 -- -- 33
2020-10-06 15:00:00 27 5 Sudoeste 12 Sudoeste 0 -- -- 34
2020-10-06 14:00:00 25.6 4 Sudoeste 13 Sudoeste 0 -- -- 36
2020-10-06 13:00:00 24.7 4 Sudoeste 11 Sur 0 -- -- 41
2020-10-06 12:00:00 22.2 4 Sudoeste 9 Sudoeste 0 -- -- 45
2020-10-06 11:00:00 17.5 4 Sudoeste 8 Sur 0 -- -- 59
2020-10-06 10:00:00 13.7 4 Sur 7 Sur 0 -- -- 75
2020-10-06 09:00:00 11.6 0 Calma 4 Sudoeste 0 -- -- 80
2020-10-06 08:00:00 11.3 2 Sudoeste 15 Sudoeste 0 -- -- 79
2020-10-06 07:00:00 12 6 Sudoeste 18 Sudoeste 0 -- -- 72
2020-10-06 06:00:00 11.9 0 Calma 12 Sudoeste 0 -- -- 77
2020-10-06 05:00:00 12.2 5 Sudoeste 11 Sudoeste 0 -- -- 77
2020-10-06 04:00:00 11.9 0 Calma 9 Sudoeste 0 -- -- 78
2020-10-06 03:00:00 12.1 2 Sudoeste 8 Sudoeste 0 -- -- 83
2020-10-06 02:00:00 13.6 4 Sudoeste 12 Sudoeste 0 -- -- 76
2020-10-06 01:00:00 13.3 2 Sudoeste 3 Sudoeste 0 -- -- 82
2020-10-06 00:00:00 14 0 Calma 5 Sudoeste 0 -- -- 80
2020-10-05 23:00:00 15 0 Calma 8 Sudoeste 0 -- -- 77
2020-10-05 22:00:00 16.5 3 Sur 11 Sudoeste 0 -- -- 73
2020-10-05 21:00:00 17.2 3 Sur 14 Sudoeste 0 -- -- 72
2020-10-05 20:00:00 18.2 7 Sudoeste 19 Sudoeste 0 -- -- 70
2020-10-05 19:00:00 20.1 9 Sudoeste 17 Sudoeste 0 -- -- 58
2020-10-05 18:00:00 21.5 10 Sur 22 Sudoeste 0 -- -- 49
2020-10-05 17:00:00 23.3 9 Sudoeste 24 Sur 0 -- -- 45
2020-10-05 16:00:00 24.2 10 Sudoeste 23 Sur 0 -- -- 42
2020-10-05 15:00:00 25 4 Sudoeste 15 Sudoeste 0 -- -- 39
2020-10-05 14:00:00 24.2 4 Sudoeste 16 Sudoeste 0 -- -- 40
2020-10-05 13:00:00 23 4 Sudoeste 14 Sudoeste 0 -- -- 42
2020-10-05 12:00:00 21 6 Sudoeste 14 Sudoeste 0 -- -- 50
2020-10-05 11:00:00 18.7 4 Sudoeste 11 Sudoeste 0 -- -- 58
2020-10-05 10:00:00 16 5 Sudoeste 17 Sudoeste 0 -- -- 65
2020-10-05 09:00:00 14.7 4 Sur 12 Sudoeste 0 -- -- 67
2020-10-05 08:00:00 13.8 2 Sudoeste 12 Sur 0 -- -- 66
2020-10-05 07:00:00 14.4 4 Sur 8 Sur 0 -- -- 66
2020-10-05 06:00:00 13.8 0 Calma 5 Sur 0 -- -- 66
2020-10-05 05:00:00 14.7 2 Sur 6 Sudoeste 0 -- -- 62
2020-10-05 04:00:00 16 0 Calma 9 Sur 0 -- -- 57
2020-10-05 03:00:00 17.7 5 Sur 11 Sur 0 -- -- 52
2020-10-05 02:00:00 18.3 4 Sudoeste 12 Sudoeste 0 -- -- 49
2020-10-05 01:00:00 18.6 3 Sudoeste 10 Sudoeste 0 -- -- 48
2020-10-05 00:00:00 18.5 5 Sur 10 Sudoeste 0 -- -- 47
2020-10-04 23:00:00 19.6 0 Calma 13 Sudoeste 0 -- -- 45
2020-10-04 22:00:00 20.3 8 Sudoeste 19 Sur 0 -- -- 42
2020-10-04 21:00:00 20.4 3 Sur 14 Oeste 0 -- -- 43
2020-10-04 20:00:00 22.5 8 Sudoeste 22 Sudoeste 0 -- -- 40
2020-10-04 19:00:00 22.6 6 Sudoeste 18 Sudoeste 0 -- -- 41
2020-10-04 18:00:00 23.5 9 Sudoeste 17 Sudoeste 0 -- -- 39
2020-10-04 17:00:00 25.7 8 Sur 18 Sur 0 -- -- 35
2020-10-04 16:00:00 25.9 8 Sur 15 Sur 0 -- -- 35
2020-10-04 15:00:00 24.2 8 Sudoeste 15 Sur 0 -- -- 36
2020-10-04 14:00:00 22.4 0 Calma 11 Sudoeste 0 -- -- 39
2020-10-04 13:00:00 20.6 3 Sudoeste 9 Sudoeste 0 -- -- 40
2020-10-04 12:00:00 19 3 Sudoeste 8 Sur 0 -- -- 45
2020-10-04 11:00:00 15 0 Calma 8 Sudoeste 0 -- -- 53
2020-10-04 10:00:00 12 4 Sudoeste 8 Sudoeste 0 -- -- 60
2020-10-04 09:00:00 8.7 3 Sur 13 Sudoeste 0 -- -- 65
2020-10-04 08:00:00 10.3 5 Sudoeste 12 Sudoeste 0 -- -- 62
2020-10-04 07:00:00 9.4 3 Sudoeste 8 Sudoeste 0 -- -- 61
2020-10-04 06:00:00 9.9 2 Sudoeste 9 Sudoeste 0 -- -- 59
2020-10-04 05:00:00 11.9 7 Sudoeste 16 Sudoeste 0 -- -- 54
2020-10-04 04:00:00 12.3 8 Sudoeste 14 Sudoeste 0 -- -- 55
2020-10-04 03:00:00 12.3 7 Sudoeste 13 Sudoeste 0 -- -- 52
2020-10-04 02:00:00 13.3 5 Sudoeste 15 Sur 0 -- -- 51
2020-10-04 01:00:00 13.6 5 Sudoeste 14 Sudoeste 0 -- -- 49
2020-10-04 00:00:00 13.3 0 Calma 9 Sudoeste 0 -- -- 49
2020-10-03 23:00:00 14.2 2 Sur 8 Sudoeste 0 -- -- 52
2020-10-03 22:00:00 13.7 2 Sudoeste 8 Sudoeste 0 -- -- 56
2020-10-03 21:00:00 15.6 0 Calma 7 Sudoeste 0 -- -- 51
2020-10-03 20:00:00 17.7 3 Sudoeste 14 Sudoeste 0 -- -- 43
2020-10-03 19:00:00 19.4 7 Sudoeste 21 Sur 0 -- -- 41
2020-10-03 18:00:00 22.1 8 Sur 23 Sudoeste 0 -- -- 36
2020-10-03 17:00:00 22.9 8 Sudoeste 22 Sudoeste 0 -- -- 29
2020-10-03 16:00:00 22.5 10 Sudoeste 22 Sudoeste 0 -- -- 30
2020-10-03 15:00:00 22 7 Sur 26 Sudoeste 0 -- -- 33
2020-10-03 14:00:00 21 5 Sudoeste 26 Sudoeste 0 -- -- 37
2020-10-03 13:00:00 19.1 12 Sudoeste 37 Sudoeste 0 -- -- 41
2020-10-03 12:00:00 17.6 12 Sudoeste 32 Sudoeste 0 -- -- 45
2020-10-03 11:00:00 15.5 17 Sudoeste 37 Sudoeste 0 -- -- 49
2020-10-03 10:00:00 14 19 Sudoeste 31 Sudoeste 0 -- -- 54
2020-10-03 09:00:00 12 7 Sudoeste 21 Sudoeste 0 -- -- 61
2020-10-03 08:00:00 10.5 0 Calma 10 Sudoeste 0 -- -- 64
2020-10-03 07:00:00 10.4 2 Sudoeste 11 Sudoeste 0 -- -- 66
2020-10-03 06:00:00 9.5 3 Sudoeste 7 Sudoeste 0 -- -- 71
2020-10-03 05:00:00 10.6 0 Calma 5 Sudoeste 0 -- -- 66
2020-10-03 04:00:00 12.8 2 Sudoeste 12 Sudoeste 0 -- -- 59
2020-10-03 03:00:00 13.9 3 Sudoeste 13 Sudoeste 0 -- -- 55
2020-10-03 02:00:00 13.5 3 Sudoeste 13 Sudoeste 0 -- -- 64
2020-10-03 01:00:00 14.4 4 Sudoeste 18 Sudoeste 0 -- -- 59
2020-10-03 00:00:00 15.7 10 Sudoeste 27 Sudoeste 0 -- -- 53
2020-10-02 23:00:00 16.1 17 Sudoeste 28 Sudoeste 0 -- -- 51
2020-10-02 22:00:00 16.2 13 Sudoeste 40 Sudoeste 0 -- -- 53
2020-10-02 21:00:00 14.8 6 Sudoeste 34 Sudoeste 0 -- -- 72
2020-10-02 20:00:00 14.4 10 Sudoeste 28 Sudoeste 0.6 -- -- 77
2020-10-02 19:00:00 19.8 17 Sudoeste 48 Sudoeste 0 -- -- 61
2020-10-02 18:00:00 25.4 17 Sudoeste 46 Sudoeste 0 -- -- 46
2020-10-02 17:00:00 25.5 16 Sudoeste 41 Oeste 0 -- -- 46
2020-10-02 16:00:00 24.4 17 Sudoeste 52 Sudoeste 0 -- -- 46
2020-10-02 15:00:00 24.3 23 Sudoeste 63 Oeste 0 -- -- 46
2020-10-02 14:00:00 24.5 12 Sudoeste 33 Sudoeste 0 -- -- 46
2020-10-02 13:00:00 21.7 10 Sudoeste 28 Sudoeste 0 -- -- 48
2020-10-02 12:00:00 21.3 10 Sudoeste 24 Sudoeste 0 -- -- 49
2020-10-02 11:00:00 20.4 6 Sudoeste 14 Sudoeste 0 -- -- 51
2020-10-02 10:00:00 19.8 6 Sudoeste 12 Sur 0 -- -- 52
2020-10-02 09:00:00 20.2 2 Sudoeste 20 Oeste 0 -- -- 49
2020-10-02 08:00:00 21 9 Sudoeste 35 Sudoeste 0 -- -- 47
2020-10-02 07:00:00 21.9 11 Sudoeste 29 Sudoeste 0 -- -- 45
2020-10-02 06:00:00 20.3 2 Sudoeste 17 Sudoeste 0 -- -- 53
2020-10-02 05:00:00 20.1 6 Sudoeste 19 Sudoeste 0 -- -- 52
2020-10-02 04:00:00 18.3 2 Sudoeste 13 Sudoeste 0 -- -- 51
2020-10-02 03:00:00 20.7 3 Sudoeste 18 Sudoeste 0 -- -- 45
2020-10-02 02:00:00 21.2 5 Sudoeste 12 Oeste 0 -- -- 42
2020-10-02 01:00:00 23.3 6 Sudoeste 22 Sudoeste 0 -- -- 39
2020-10-02 00:00:00 23.9 11 Sudoeste 25 Oeste 0 -- -- 35
2020-10-01 23:00:00 25.1 11 Sudoeste 25 Oeste 0 -- -- 32
2020-10-01 22:00:00 25.5 8 Sudoeste 17 Sudoeste 0 -- -- 33
2020-10-01 21:00:00 22.3 0 Calma 6 Sur 0 -- -- 45
2020-10-01 20:00:00 25.2 3 Sudoeste 14 Sudoeste 0 -- -- 39
2020-10-01 19:00:00 26.2 6 Sudoeste 21 Sudoeste 0 -- -- 39
2020-10-01 18:00:00 28.5 10 Sur 23 Sur 0 -- -- 33
2020-10-01 17:00:00 29.3 10 Sur 21 Sur 0 -- -- 33
2020-10-01 16:00:00 30.3 12 Sur 22 Sur 0 -- -- 32
2020-10-01 15:00:00 31.8 9 Sur 21 Sudoeste 0 -- -- 29
2020-10-01 14:00:00 30.2 4 Sudoeste 13 Sur 0 -- -- 29
2020-10-01 13:00:00 28.1 3 Sudoeste 11 Sur 0 -- -- 34
2020-10-01 12:00:00 24.8 5 Sudoeste 9 Oeste 0 -- -- 40
2020-10-01 11:00:00 22.9 4 Sudoeste 13 Sudoeste 0 -- -- 43
2020-10-01 10:00:00 17.9 0 Calma 6 Sudoeste 0 -- -- 69
2020-10-01 09:00:00 15.5 3 Sudoeste 8 Sur 0 -- -- 80
2020-10-01 08:00:00 15.2 0 Calma 5 Sudoeste 0 -- -- 82
2020-10-01 07:00:00 17.2 3 Sur 12 Oeste 0 -- -- 78
2020-10-01 06:00:00 16.2 2 Sudoeste 10 Oeste 0 -- -- 86
2020-10-01 05:00:00 16 0 Calma 5 Sur 0 -- -- 89
2020-10-01 04:00:00 16.2 0 Calma 5 Sudoeste 0 -- -- 90
2020-10-01 03:00:00 17.3 2 Sudoeste 4 Oeste 0 -- -- 88
2020-10-01 02:00:00 17.5 0 Calma 5 Sudoeste 0 -- -- 88
2020-10-01 01:00:00 18.1 0 Calma 5 Sudoeste 0 -- -- 86
2020-10-01 00:00:00 18.6 0 Calma 5 Sudoeste 0 -- -- 85
2020-09-30 23:00:00 19.1 0 Calma 6 Sudoeste 0 -- -- 83
2020-09-30 22:00:00 19.2 0 Calma 10 Sudoeste 0 -- -- 79
2020-09-30 21:00:00 19.9 5 Sudoeste 14 Sudoeste 0 -- -- 78
2020-09-30 20:00:00 20.9 6 Sudoeste 17 Sudoeste 0 -- -- 72
2020-09-30 19:00:00 22.6 6 Sur 16 Sur 0 -- -- 64
2020-09-30 18:00:00 23.6 7 Sudoeste 18 Sur 0 -- -- 63
2020-09-30 17:00:00 23.9 8 Sur 18 Sur 0 -- -- 59
2020-09-30 16:00:00 25.3 8 Sudoeste 17 Sudoeste 0 -- -- 53
2020-09-30 15:00:00 25.1 8 Sudoeste 18 Sudoeste 0 -- -- 47
2020-09-30 14:00:00 25.4 7 Sudoeste 17 Sudoeste 0 -- -- 45
2020-09-30 13:00:00 23 6 Sudoeste 14 Sudoeste 0 -- -- 49
2020-09-30 12:00:00 21.9 5 Sudoeste 10 Sudoeste 0.9 -- -- 60
2020-09-30 11:00:00 18.8 3 Sudoeste 6 Sudoeste 0 -- -- 74
2020-09-30 10:00:00 15.8 2 Sudoeste 4 Sur 0 -- -- 84
2020-09-30 09:00:00 13.5 0 Calma 4 Sur 0 -- -- 91
2020-09-30 08:00:00 12.9 0 Calma 5 Sudoeste 0 -- -- 90
2020-09-30 07:00:00 13.6 3 Sudoeste 9 Sudoeste 0 -- -- 89
2020-09-30 06:00:00 13.8 0 Calma 6 Sudoeste 0 -- -- 89
2020-09-30 05:00:00 14.3 0 Calma 9 Sur 0 -- -- 88
2020-09-30 04:00:00 15 4 Sur 10 Sur 0 -- -- 83
2020-09-30 03:00:00 15.7 3 Sur 7 Sur 0 -- -- 83
2020-09-30 02:00:00 16 3 Sudoeste 6 Sur 0 -- -- 83
2020-09-30 01:00:00 16.9 3 Sur 6 Sudoeste 0 -- -- 82
2020-09-30 00:00:00 17.7 4 Sudoeste 8 Sudoeste 0 -- -- 83